Time;durP1;ratioP1;P1;durP2;ratioP2;P2;SDS_P1;SDS_P2;PMS_P1;PMS_P2;Temp;Humidity;BMP_temperature;BMP_pressure;BME280_temperature;BME280_humidity;BME280_pressure;Samples;Min_cycle;Max_cycle;Signal;HPM_P1;HPM_P2
2022/11/22 00:00:38;;;;;;;11.53;7.10;;;;;;;0.42;88.72;100489.13;1746939;79;25953;-62
2022/11/22 00:03:07;;;;;;;9.10;6.67;;;;;;;0.44;88.47;100489.91;1768009;79;25636;-61
2022/11/22 00:05:34;;;;;;;9.65;6.47;;;;;;;0.41;88.30;100484.31;1770450;80;27475;-61
2022/11/22 00:08:02;;;;;;;8.38;6.20;;;;;;;0.40;88.21;100489.22;1779033;80;25737;-61
2022/11/22 00:10:56;;;;;;;9.33;6.30;;;;;;;0.39;87.91;100491.47;1792592;79;25690;-61
2022/11/22 00:13:23;;;;;;;9.55;6.78;;;;;;;0.41;87.33;100495.34;1785270;79;25854;-61
2022/11/22 00:16:02;;;;;;;8.63;5.95;;;;;;;0.44;87.24;100500.50;1792471;79;25744;-61
2022/11/22 00:18:29;;;;;;;11.57;5.80;;;;;;;0.43;87.06;100493.48;1790660;79;29627;-60
2022/11/22 00:20:56;;;;;;;9.70;6.17;;;;;;;0.45;87.04;100491.63;1795576;79;25758;-61
2022/11/22 00:23:23;;;;;;;7.90;5.53;;;;;;;0.49;86.79;100494.52;1796244;79;25789;-61
2022/11/22 00:25:50;;;;;;;8.15;5.70;;;;;;;0.52;86.72;100494.34;1793996;79;25773;-61
2022/11/22 00:28:17;;;;;;;6.85;4.92;;;;;;;0.61;86.93;100496.52;1742594;80;25732;-61
2022/11/22 00:30:44;;;;;;;7.37;5.15;;;;;;;0.69;86.65;100496.13;1720445;81;27490;-61
2022/11/22 00:33:10;;;;;;;6.40;4.70;;;;;;;0.74;86.38;100497.22;1770459;80;25913;-61
2022/11/22 00:35:37;;;;;;;6.55;3.95;;;;;;;0.81;86.33;100493.31;1767107;80;25774;-63
2022/11/22 00:38:04;;;;;;;5.97;4.60;;;;;;;0.91;86.17;100494.99;1756114;80;26447;-62
2022/11/22 00:40:31;;;;;;;8.98;5.95;;;;;;;0.93;85.64;100499.75;1761588;80;27291;-61
2022/11/22 00:42:57;;;;;;;9.50;5.37;;;;;;;1.01;85.99;100496.22;1759598;80;29730;-61
2022/11/22 00:45:25;;;;;;;4.87;3.77;;;;;;;1.12;86.25;100491.67;1766425;80;25751;-61
2022/11/22 00:47:52;;;;;;;7.87;4.75;;;;;;;1.21;85.83;100495.14;1719030;82;25715;-61
2022/11/22 00:50:18;;;;;;;6.28;4.70;;;;;;;1.23;85.25;100497.25;1747551;79;26503;-62
2022/11/22 00:52:45;;;;;;;15.30;9.13;;;;;;;1.31;85.29;100500.82;1764582;79;25778;-61
2022/11/22 00:55:13;;;;;;;7.17;4.90;;;;;;;1.38;85.20;100497.38;1725521;81;27590;-62
2022/11/22 00:57:39;;;;;;;7.22;5.22;;;;;;;1.43;85.05;100500.62;1765405;79;27281;-61
2022/11/22 01:00:09;;;;;;;6.30;4.50;;;;;;;1.48;84.91;100507.83;1768089;80;25838;-61
2022/11/22 01:02:35;;;;;;;6.00;4.65;;;;;;;1.53;84.61;100511.11;1767428;80;25726;-61
2022/11/22 01:05:04;;;;;;;5.47;4.10;;;;;;;1.54;84.12;100511.95;1768209;80;26500;-61
2022/11/22 01:07:31;;;;;;;5.45;4.45;;;;;;;1.51;83.73;100509.00;1750665;80;27423;-61
2022/11/22 01:09:57;;;;;;;6.85;5.25;;;;;;;1.43;83.50;100505.08;1764099;80;25722;-62
2022/11/22 01:12:24;;;;;;;6.62;4.62;;;;;;;1.48;84.11;100509.16;1770381;80;25442;-61
2022/11/22 01:14:51;;;;;;;6.33;5.25;;;;;;;1.52;84.06;100504.09;1763514;79;25797;-63
2022/11/22 01:17:17;;;;;;;6.33;5.08;;;;;;;1.50;83.84;100507.28;1758650;80;25799;-62
2022/11/22 01:19:45;;;;;;;5.80;4.65;;;;;;;1.51;83.86;100511.66;1742227;80;27479;-62
2022/11/22 01:22:11;;;;;;;4.55;3.77;;;;;;;1.51;83.57;100512.98;1766832;80;26052;-62
2022/11/22 01:24:38;;;;;;;4.60;3.80;;;;;;;1.46;82.95;100513.72;1770208;80;25450;-62
2022/11/22 01:27:05;;;;;;;4.08;3.67;;;;;;;1.43;83.18;100519.66;1765766;78;27946;-62
2022/11/22 01:29:32;;;;;;;7.20;4.58;;;;;;;1.44;83.39;100518.23;1761420;80;26034;-62
2022/11/22 01:31:59;;;;;;;4.95;4.40;;;;;;;1.48;83.48;100517.11;1745140;81;27635;-62
2022/11/22 01:34:26;;;;;;;5.83;4.65;;;;;;;1.56;83.89;100512.27;1750871;81;25767;-62
2022/11/22 01:36:53;;;;;;;5.78;3.77;;;;;;;1.67;84.19;100515.64;1727434;82;25638;-62
2022/11/22 01:39:20;;;;;;;6.90;4.85;;;;;;;1.70;83.76;100523.41;1728078;82;25716;-62
2022/11/22 01:41:46;;;;;;;6.67;4.00;;;;;;;1.72;83.46;100515.39;1731641;80;25714;-62
2022/11/22 01:44:29;;;;;;;6.78;4.47;;;;;;;1.81;83.86;100519.30;1757642;80;27536;-62
2022/11/22 01:47:12;;;;;;;5.22;4.20;;;;;;;1.92;84.28;100518.73;1735594;80;25799;-61
2022/11/22 01:49:59;;;;;;;7.05;5.08;;;;;;;2.05;84.59;100520.21;1752162;81;25827;-61
2022/11/22 01:52:30;;;;;;;6.50;4.50;;;;;;;2.13;84.65;100519.30;1757333;80;25769;-61
2022/11/22 01:55:04;;;;;;;5.75;4.53;;;;;;;2.24;84.72;100517.34;1742626;80;25919;-62
2022/11/22 01:57:35;;;;;;;6.20;4.67;;;;;;;2.31;84.37;100518.69;1760929;81;28167;-61
2022/11/22 02:00:07;;;;;;;5.90;4.60;;;;;;;2.29;83.10;100511.28;1761056;80;25771;-61
2022/11/22 02:02:37;;;;;;;7.78;5.17;;;;;;;2.29;83.33;100509.95;1720625;80;25744;-61
2022/11/22 02:05:11;;;;;;;7.20;4.50;;;;;;;2.34;83.75;100517.20;1759901;80;25932;-61
2022/11/22 02:08:08;;;;;;;6.00;4.30;;;;;;;2.38;83.29;100514.73;1731180;81;25717;-60
2022/11/22 02:10:39;;;;;;;6.47;5.28;;;;;;;2.40;82.75;100512.84;1726179;80;27534;-61
2022/11/22 02:13:07;;;;;;;7.83;5.45;;;;;;;2.40;82.33;100526.61;1760812;80;25791;-61
2022/11/22 02:15:35;;;;;;;6.70;5.30;;;;;;;2.35;82.14;100522.89;1761175;80;25751;-61
2022/11/22 02:18:01;;;;;;;8.83;5.90;;;;;;;2.33;82.09;100522.95;1759934;81;25781;-61
2022/11/22 02:20:30;;;;;;;6.85;5.15;;;;;;;2.31;82.01;100518.69;1717369;80;53777;-62
2022/11/22 02:23:15;;;;;;;6.42;5.15;;;;;;;2.27;81.50;100527.80;1709377;83;27468;-61
2022/11/22 02:25:55;;;;;;;8.60;5.58;;;;;;;2.24;81.72;100531.45;1748151;80;25846;-61
2022/11/22 02:28:22;;;;;;;8.80;5.37;;;;;;;2.25;81.80;100532.33;1771647;79;25726;-61
2022/11/22 02:30:49;;;;;;;6.25;5.03;;;;;;;2.25;81.57;100529.67;1800674;79;26695;-61
2022/11/22 02:33:16;;;;;;;7.60;5.58;;;;;;;2.25;81.73;100529.19;1776017;80;25591;-61
2022/11/22 02:35:44;;;;;;;6.78;4.95;;;;;;;2.26;81.75;100534.05;1801969;78;28097;-61
2022/11/22 02:38:18;;;;;;;6.35;5.03;;;;;;;2.29;82.00;100530.73;1795391;79;25744;-61
2022/11/22 02:40:52;;;;;;;11.57;6.12;;;;;;;2.35;82.25;100530.85;1805687;79;25662;-61
2022/11/22 02:43:33;;;;;;;6.10;5.03;;;;;;;2.41;82.44;100538.94;1807342;79;25928;-61
2022/11/22 02:46:10;;;;;;;6.55;4.95;;;;;;;2.48;82.50;100540.28;1799544;79;25772;-62
2022/11/22 02:48:43;;;;;;;6.10;4.55;;;;;;;2.53;82.57;100528.91;1777687;79;27593;-62
2022/11/22 02:51:15;;;;;;;9.15;5.70;;;;;;;2.57;82.60;100530.91;1751742;80;25769;-61
2022/11/22 02:53:43;;;;;;;7.95;5.78;;;;;;;2.60;82.36;100525.42;1748176;80;25723;-61
2022/11/22 02:56:10;;;;;;;6.85;5.37;;;;;;;2.62;81.88;100519.55;1751585;80;25932;-62
2022/11/22 02:58:37;;;;;;;9.48;5.75;;;;;;;2.66;81.62;100523.27;1778533;79;25681;-62
2022/11/22 03:01:04;;;;;;;7.53;5.10;;;;;;;2.68;81.72;100520.51;1807101;79;27394;-62
2022/11/22 03:03:32;;;;;;;10.28;6.12;;;;;;;2.73;81.90;100527.75;1807294;79;25448;-62
2022/11/22 03:06:01;;;;;;;8.00;6.25;;;;;;;2.72;81.03;100532.67;1805743;79;25748;-62
2022/11/22 03:08:28;;;;;;;7.50;5.22;;;;;;;2.66;80.73;100535.67;1791615;79;25891;-62
2022/11/22 03:11:00;;;;;;;8.20;5.12;;;;;;;2.62;80.61;100533.67;1788823;79;25740;-62
2022/11/22 03:13:27;;;;;;;6.45;4.70;;;;;;;2.62;80.78;100537.66;1788908;79;28177;-62
2022/11/22 03:15:53;;;;;;;7.12;4.97;;;;;;;2.57;80.05;100530.45;1801917;79;25731;-62
2022/11/22 03:18:21;;;;;;;6.58;5.45;;;;;;;2.55;80.30;100544.28;1758357;80;25801;-62
2022/11/22 03:20:48;;;;;;;8.08;6.10;;;;;;;2.54;80.34;100538.59;1765636;79;25723;-62
2022/11/22 03:23:14;;;;;;;8.20;6.20;;;;;;;2.52;80.27;100537.81;1808664;79;25507;-62
2022/11/22 03:25:41;;;;;;;9.78;6.65;;;;;;;2.51;80.09;100544.06;1806711;79;27477;-62
2022/11/22 03:28:08;;;;;;;19.98;10.88;;;;;;;2.46;79.82;100546.15;1790330;78;25722;-62
2022/11/22 03:30:40;;;;;;;21.82;12.18;;;;;;;2.41;79.65;100546.91;1785255;79;25469;-61
2022/11/22 03:33:07;;;;;;;17.82;10.48;;;;;;;2.38;79.83;100546.58;1795351;79;25805;-62
2022/11/22 03:35:34;;;;;;;17.48;10.30;;;;;;;2.37;80.06;100546.69;1792714;79;25824;-62
2022/11/22 03:38:01;;;;;;;15.45;9.23;;;;;;;2.38;80.31;100554.55;1791307;79;27418;-62
2022/11/22 03:40:27;;;;;;;17.80;9.33;;;;;;;2.42;80.35;100552.59;1787625;79;25722;-62
2022/11/22 03:42:54;;;;;;;11.65;7.83;;;;;;;2.43;80.40;100556.48;1758964;79;25718;-62
2022/11/22 03:45:20;;;;;;;12.88;8.13;;;;;;;2.48;80.52;100562.86;1736574;81;25723;-62
2022/11/22 03:47:49;;;;;;;9.90;7.53;;;;;;;2.51;80.58;100561.33;1708430;83;25888;-62
2022/11/22 03:50:16;;;;;;;10.65;7.12;;;;;;;2.54;80.39;100561.64;1726801;81;27451;-62
2022/11/22 03:52:43;;;;;;;8.80;5.70;;;;;;;2.54;80.31;100564.30;1755514;81;25715;-62
2022/11/22 03:55:10;;;;;;;12.18;6.53;;;;;;;2.55;80.29;100561.55;1716860;82;25816;-62
2022/11/22 03:57:36;;;;;;;10.13;5.95;;;;;;;2.59;80.34;100578.16;1695209;82;25743;-63
2022/11/22 04:00:06;;;;;;;8.43;6.37;;;;;;;2.61;80.21;100574.45;1696382;84;26468;-63
2022/11/22 04:02:35;;;;;;;10.55;6.33;;;;;;;2.62;80.19;100572.19;1730515;81;27432;-62
2022/11/22 04:05:02;;;;;;;9.63;5.33;;;;;;;2.59;79.63;100578.16;1732325;82;25732;-62
2022/11/22 04:07:29;;;;;;;7.37;5.67;;;;;;;2.56;79.23;100574.34;1730992;82;25887;-62
2022/11/22 04:09:55;;;;;;;8.43;5.85;;;;;;;2.50;79.30;100575.09;1732586;82;25760;-63
2022/11/22 04:12:22;;;;;;;9.15;6.30;;;;;;;2.53;79.28;100575.38;1733089;81;26084;-62
2022/11/22 04:15:07;;;;;;;6.80;5.83;;;;;;;2.53;79.16;100574.53;1732603;82;27458;-62
2022/11/22 04:17:44;;;;;;;9.35;6.28;;;;;;;2.53;79.36;100567.41;1727335;82;26441;-60
2022/11/22 04:23:13;;;;;;;8.05;5.97;;;;;;;2.56;79.61;100576.99;1732732;82;25918;-62
2022/11/22 04:25:50;;;;;;;9.33;6.28;;;;;;;2.56;79.12;100578.32;1732591;82;25766;-63
2022/11/22 04:28:20;;;;;;;7.97;6.15;;;;;;;2.50;78.89;100579.08;1731616;82;27503;-63
2022/11/22 04:33:34;;;;;;;8.33;6.05;;;;;;;2.45;78.65;100589.13;1732863;81;25740;-62
2022/11/22 04:36:01;;;;;;;7.78;5.92;;;;;;;2.41;78.47;100586.24;1731897;82;25715;-62
2022/11/22 04:38:27;;;;;;;9.10;5.85;;;;;;;2.38;78.22;100582.42;1724606;82;25828;-62
2022/11/22 04:40:54;;;;;;;9.65;5.62;;;;;;;2.35;77.95;100583.47;1732789;82;27477;-62
2022/11/22 04:46:11;;;;;;;6.33;4.67;;;;;;;2.31;77.48;100593.02;1705457;82;26577;-62
2022/11/22 04:48:38;;;;;;;11.18;5.90;;;;;;;2.24;77.65;100590.33;1722531;81;25883;-62
2022/11/22 04:53:52;;;;;;;8.53;6.05;;;;;;;2.21;78.21;100582.53;1734027;82;27544;-63
2022/11/22 04:56:19;;;;;;;6.87;5.47;;;;;;;2.19;78.25;100583.95;1732772;81;26280;-62
2022/11/22 04:58:46;;;;;;;12.23;6.55;;;;;;;2.20;78.40;100585.67;1729659;82;25835;-62
2022/11/22 05:01:13;;;;;;;8.03;5.37;;;;;;;2.23;78.87;100585.51;1730552;82;25941;-63
2022/11/22 05:03:39;;;;;;;10.45;6.83;;;;;;;2.26;78.90;100579.16;1732487;81;25813;-62
2022/11/22 05:06:06;;;;;;;9.98;7.00;;;;;;;2.30;78.70;100584.66;1730739;82;27463;-62
2022/11/22 05:08:33;;;;;;;14.15;6.42;;;;;;;2.30;78.53;100578.91;1730187;82;25818;-62
2022/11/22 05:11:00;;;;;;;13.88;6.70;;;;;;;2.28;78.50;100579.45;1730778;81;25763;-62
2022/11/22 05:13:36;;;;;;;8.90;6.75;;;;;;;2.27;78.38;100586.19;1730064;82;26844;-62
2022/11/22 05:16:06;;;;;;;9.30;6.30;;;;;;;2.23;78.43;100587.29;1732506;82;27304;-62
2022/11/22 05:18:33;;;;;;;7.12;5.67;;;;;;;2.21;78.54;100599.33;1728990;82;27509;-62
2022/11/22 05:21:07;;;;;;;8.08;6.20;;;;;;;2.23;78.86;100589.95;1751709;79;25845;-61
2022/11/22 05:26:32;;;;;;;8.58;6.20;;;;;;;2.28;78.99;100599.84;1747072;79;25806;-62
2022/11/22 05:29:04;;;;;;;12.07;6.33;;;;;;;2.27;78.88;100602.11;1734663;80;25980;-62
2022/11/22 05:31:33;;;;;;;7.97;5.42;;;;;;;2.28;79.02;100603.34;1748489;81;27638;-62
2022/11/22 05:34:00;;;;;;;8.25;5.87;;;;;;;2.30;78.84;100603.25;1742112;81;25818;-62
2022/11/22 05:36:29;;;;;;;11.40;6.22;;;;;;;2.30;78.63;100608.55;1728668;82;26313;-61
2022/11/22 05:38:55;;;;;;;10.58;6.33;;;;;;;2.30;78.40;100616.52;1754523;81;26718;-62
2022/11/22 05:41:22;;;;;;;17.02;7.75;;;;;;;2.26;77.98;100613.19;1748463;80;25743;-61
2022/11/22 05:43:49;;;;;;;8.83;6.05;;;;;;;2.21;77.79;100617.04;1759060;80;28352;-62
2022/11/22 05:46:20;;;;;;;11.68;7.20;;;;;;;2.15;77.91;100625.74;1758733;81;25778;-62
2022/11/22 05:48:47;;;;;;;8.83;6.00;;;;;;;2.12;77.93;100621.92;1757774;80;25716;-62
2022/11/22 05:51:18;;;;;;;16.20;7.03;;;;;;;2.11;78.03;100633.96;1731097;80;25841;-62
2022/11/22 05:53:46;;;;;;;13.95;7.22;;;;;;;2.10;78.06;100637.55;1720286;81;25780;-62
2022/11/22 05:56:17;;;;;;;10.80;6.90;;;;;;;2.07;78.23;100639.91;1732508;80;27556;-61
2022/11/22 05:58:44;;;;;;;10.53;7.53;;;;;;;2.12;78.57;100632.53;1735893;80;25817;-62
2022/11/22 06:01:16;;;;;;;18.00;8.00;;;;;;;2.16;78.70;100637.20;1758154;80;25820;-60
2022/11/22 06:03:44;;;;;;;11.85;7.47;;;;;;;2.16;78.61;100630.56;1741107;81;25838;-61
2022/11/22 06:06:12;;;;;;;9.70;6.67;;;;;;;2.18;78.84;100637.52;1759069;80;25435;-62
2022/11/22 06:08:42;;;;;;;9.25;6.60;;;;;;;2.23;79.11;100637.27;1697683;81;27678;-61
2022/11/22 06:11:13;;;;;;;10.38;6.90;;;;;;;2.30;79.25;100643.94;1759537;81;25980;-61
2022/11/22 06:13:42;;;;;;;9.38;6.92;;;;;;;2.38;79.42;100632.87;1759092;81;25748;-62
2022/11/22 06:16:11;;;;;;;13.58;7.35;;;;;;;2.40;78.79;100644.27;1757808;81;25856;-61
2022/11/22 06:18:38;;;;;;;14.85;7.25;;;;;;;2.41;79.03;100643.33;1740038;81;25819;-61
2022/11/22 06:21:12;;;;;;;19.30;8.65;;;;;;;2.49;79.07;100646.41;1759266;80;27498;-62
2022/11/22 06:23:39;;;;;;;18.75;8.80;;;;;;;2.54;78.90;100649.28;1759320;81;26082;-62
2022/11/22 06:26:12;;;;;;;14.18;7.85;;;;;;;2.57;78.89;100658.38;1758652;80;25702;-62
2022/11/22 06:28:40;;;;;;;10.58;7.42;;;;;;;2.60;78.83;100656.40;1762189;79;25848;-61
2022/11/22 06:31:12;;;;;;;12.73;9.38;;;;;;;2.62;78.98;100653.20;1768630;81;25837;-61
2022/11/22 06:33:40;;;;;;;11.73;8.83;;;;;;;2.71;79.24;100652.28;1767812;79;27648;-61
2022/11/22 06:36:12;;;;;;;13.03;8.93;;;;;;;2.76;79.00;100652.40;1767032;80;25857;-61
2022/11/22 06:38:41;;;;;;;27.05;16.37;;;;;;;2.79;78.84;100652.69;1766481;80;25826;-60
2022/11/22 06:41:12;;;;;;;15.45;9.33;;;;;;;2.81;78.73;100650.35;1770237;80;26404;-61
2022/11/22 06:43:41;;;;;;;12.33;8.90;;;;;;;2.85;78.52;100652.35;1760121;79;25719;-61
2022/11/22 06:46:09;;;;;;;17.50;10.75;;;;;;;2.87;77.63;100650.44;1748475;80;27415;-61
2022/11/22 06:48:39;;;;;;;16.97;10.48;;;;;;;2.77;77.05;100653.27;1751419;80;25942;-61
2022/11/22 06:51:16;;;;;;;20.02;11.38;;;;;;;2.70;77.30;100658.08;1775882;80;25817;-61
2022/11/22 06:53:44;;;;;;;16.32;11.12;;;;;;;2.58;77.29;100662.30;1754029;80;25768;-61
2022/11/22 06:56:14;;;;;;;19.67;11.05;;;;;;;2.53;77.58;100668.33;1730292;82;25744;-61
2022/11/22 06:58:43;;;;;;;18.10;11.40;;;;;;;2.51;77.72;100666.22;1707817;83;27749;-61
2022/11/22 07:01:17;;;;;;;19.82;10.13;;;;;;;2.55;78.19;100674.89;1727972;81;25984;-61
2022/11/22 07:03:45;;;;;;;13.28;9.13;;;;;;;2.60;78.36;100675.48;1705137;83;25719;-61
2022/11/22 07:06:14;;;;;;;14.93;9.50;;;;;;;2.63;78.29;100670.84;1734867;81;26869;-62
2022/11/22 07:08:42;;;;;;;18.55;9.75;;;;;;;2.65;77.86;100671.63;1709487;83;26160;-61
2022/11/22 07:11:15;;;;;;;16.85;10.08;;;;;;;2.66;77.88;100673.34;1724101;82;27406;-61
2022/11/22 07:13:43;;;;;;;15.63;9.73;;;;;;;2.66;77.80;100675.99;1747858;80;25711;-61
2022/11/22 07:16:13;;;;;;;16.35;9.90;;;;;;;2.64;77.67;100673.05;1770546;80;25749;-61
2022/11/22 07:18:41;;;;;;;19.20;10.53;;;;;;;2.63;77.78;100670.84;1740638;81;25867;-62
2022/11/22 07:21:15;;;;;;;15.18;10.63;;;;;;;2.69;78.08;100675.44;1768683;80;25769;-61
2022/11/22 07:23:44;;;;;;;18.25;10.55;;;;;;;2.68;77.70;100676.38;1768741;79;27462;-61
2022/11/22 07:26:13;;;;;;;13.80;9.78;;;;;;;2.61;77.85;100673.21;1769978;79;25685;-61
2022/11/22 07:28:40;;;;;;;20.08;10.78;;;;;;;2.63;77.97;100673.98;1762374;79;25748;-62
2022/11/22 07:31:09;;;;;;;14.53;10.10;;;;;;;2.64;77.89;100672.56;1742036;81;25827;-61
2022/11/22 07:33:36;;;;;;;20.23;10.65;;;;;;;2.71;78.12;100668.22;1767133;80;25430;-61
2022/11/22 07:36:10;;;;;;;19.60;10.08;;;;;;;2.79;78.18;100668.63;1766335;80;27473;-61
2022/11/22 07:38:37;;;;;;;16.02;10.65;;;;;;;2.88;78.51;100666.77;1767212;81;25789;-61
2022/11/22 07:41:06;;;;;;;19.70;10.00;;;;;;;3.01;78.00;100674.87;1743494;80;25816;-61
2022/11/22 07:43:33;;;;;;;24.40;11.73;;;;;;;3.04;77.60;100673.38;1761800;80;26595;-61
2022/11/22 07:46:08;;;;;;;17.85;11.75;;;;;;;3.08;77.29;100668.73;1733840;80;25741;-61
2022/11/22 07:48:34;;;;;;;16.55;11.28;;;;;;;3.15;76.56;100678.54;1754865;80;27403;-61
2022/11/22 07:51:06;;;;;;;17.85;11.60;;;;;;;3.20;76.81;100685.30;1733547;81;26480;-61
2022/11/22 07:53:34;;;;;;;19.92;12.58;;;;;;;3.26;76.84;100686.74;1731538;82;25731;-61
2022/11/22 07:56:03;;;;;;;24.82;13.20;;;;;;;3.31;76.20;100682.00;1758962;80;25815;-62
2022/11/22 07:58:31;;;;;;;17.45;12.55;;;;;;;3.34;76.09;100672.52;1761868;81;25848;-62
2022/11/22 08:01:06;;;;;;;18.50;12.58;;;;;;;3.38;75.88;100667.37;1758822;80;27185;-62
2022/11/22 08:03:34;;;;;;;26.05;14.47;;;;;;;3.44;76.07;100671.02;1760658;80;25827;-62
2022/11/22 08:06:03;;;;;;;22.87;12.95;;;;;;;3.55;75.80;100670.81;1746797;80;25763;-62
2022/11/22 08:08:30;;;;;;;19.92;12.78;;;;;;;3.64;75.77;100667.59;1761066;80;25777;-62
2022/11/22 08:10:57;;;;;;;21.05;11.70;;;;;;;3.76;75.85;100670.84;1759420;80;25754;-62
2022/11/22 08:13:24;;;;;;;21.02;12.25;;;;;;;3.89;75.79;100673.59;1724739;82;27479;-62
2022/11/22 08:15:51;;;;;;;15.53;10.35;;;;;;;3.98;76.00;100668.19;1758047;80;25693;-62
2022/11/22 08:18:18;;;;;;;17.92;12.13;;;;;;;4.11;76.02;100674.92;1756031;80;25775;-62
2022/11/22 08:20:44;;;;;;;18.92;11.38;;;;;;;4.26;76.22;100657.59;1757577;81;26549;-62
2022/11/22 08:23:11;;;;;;;17.82;11.73;;;;;;;4.36;74.85;100658.22;1759046;80;25807;-62
2022/11/22 08:25:38;;;;;;;19.17;11.68;;;;;;;4.45;74.76;100656.78;1740294;81;27535;-62
2022/11/22 08:28:05;;;;;;;16.23;10.65;;;;;;;4.56;74.86;100656.08;1707677;82;25724;-62
2022/11/22 08:30:31;;;;;;;18.95;10.35;;;;;;;4.75;73.79;100657.04;1759047;80;25778;-62
2022/11/22 08:32:58;;;;;;;15.40;10.20;;;;;;;4.82;73.02;100666.36;1760608;79;27850;-61
2022/11/22 08:35:25;;;;;;;18.20;10.75;;;;;;;4.85;73.01;100664.81;1762149;81;25609;-62
2022/11/22 08:37:56;;;;;;;15.23;10.98;;;;;;;4.81;72.07;100671.77;1772935;79;27468;-62
2022/11/22 08:40:23;;;;;;;16.17;11.78;;;;;;;4.78;73.25;100668.00;1797286;79;25737;-62
2022/11/22 08:42:55;;;;;;;19.52;12.68;;;;;;;4.84;73.78;100660.43;1773193;79;25735;-62
2022/11/22 08:45:22;;;;;;;15.35;12.03;;;;;;;5.05;74.22;100657.78;1776038;79;25789;-62
2022/11/22 08:47:48;;;;;;;20.60;13.15;;;;;;;5.36;73.45;100656.55;1788675;79;25582;-62
2022/11/22 08:50:17;;;;;;;18.30;11.78;;;;;;;5.64;73.16;100666.16;1781603;79;27463;-61
2022/11/22 08:52:44;;;;;;;18.75;11.60;;;;;;;5.78;72.39;100672.37;1794005;79;25798;-62
2022/11/22 08:55:11;;;;;;;19.02;12.23;;;;;;;5.91;71.09;100657.67;1796173;79;25786;-62
2022/11/22 08:57:38;;;;;;;19.23;12.78;;;;;;;6.02;71.87;100664.94;1796698;79;25840;-62
2022/11/22 09:00:07;;;;;;;22.22;11.90;;;;;;;6.33;68.63;100658.70;1774751;79;25824;-62
2022/11/22 09:02:34;;;;;;;19.77;11.90;;;;;;;6.70;68.25;100652.00;1774479;79;27449;-62
2022/11/22 09:05:01;;;;;;;15.88;11.43;;;;;;;6.77;67.41;100663.09;1766262;79;25747;-62
2022/11/22 09:07:28;;;;;;;17.77;10.98;;;;;;;7.57;66.96;100656.19;1792352;79;26541;-62
2022/11/22 09:09:55;;;;;;;20.30;11.95;;;;;;;8.03;65.74;100656.55;1797007;79;25789;-62
2022/11/22 09:12:22;;;;;;;16.40;10.90;;;;;;;7.96;64.69;100660.69;1786400;79;25888;-62
2022/11/22 09:14:49;;;;;;;16.45;11.12;;;;;;;7.95;65.01;100658.98;1781314;79;29735;-62
2022/11/22 09:17:16;;;;;;;16.48;11.33;;;;;;;8.34;64.01;100655.42;1796716;79;27273;-62
2022/11/22 09:19:43;;;;;;;19.62;11.45;;;;;;;9.53;64.68;100648.75;1786680;79;26574;-62
2022/11/22 09:22:09;;;;;;;15.83;12.55;;;;;;;10.58;62.66;100646.25;1778815;79;26386;-63
2022/11/22 09:24:36;;;;;;;21.97;14.03;;;;;;;11.43;59.87;100645.16;1774393;79;25972;-62
2022/11/22 09:27:03;;;;;;;17.07;11.73;;;;;;;11.90;60.26;100648.34;1796695;79;27448;-62
2022/11/22 09:29:30;;;;;;;17.02;11.68;;;;;;;12.17;56.22;100640.47;1790501;79;27258;-62
2022/11/22 09:31:57;;;;;;;14.85;10.78;;;;;;;11.94;58.82;100637.28;1768303;79;25811;-62
2022/11/22 09:34:23;;;;;;;17.10;10.53;;;;;;;12.62;56.58;100638.28;1770255;81;25777;-63
2022/11/22 09:36:50;;;;;;;20.25;11.48;;;;;;;13.03;54.85;100645.05;1767949;79;25779;-63
2022/11/22 09:39:17;;;;;;;16.40;10.72;;;;;;;12.95;55.79;100644.50;1750905;80;27472;-62
2022/11/22 09:42:04;;;;;;;13.60;10.53;;;;;;;12.71;55.07;100640.54;1749768;80;26076;-62
2022/11/22 09:45:00;;;;;;;17.00;10.82;;;;;;;12.47;55.74;100636.59;1738525;80;25715;-63
2022/11/22 09:47:41;;;;;;;16.75;9.23;;;;;;;12.84;52.55;100630.22;1749976;80;26545;-62
2022/11/22 09:51:00;;;;;;;19.15;9.68;;;;;;;13.72;52.50;100629.02;1757296;80;25781;-62
2022/11/22 09:53:38;;;;;;;21.15;10.03;;;;;;;14.37;48.97;100623.55;1747764;80;28189;-62
2022/11/22 09:56:14;;;;;;;18.70;9.83;;;;;;;15.10;45.96;100623.86;1727141;80;25728;-63
2022/11/22 09:58:58;;;;;;;18.32;9.40;;;;;;;15.47;47.66;100625.16;1720357;82;25874;-62
2022/11/22 10:01:49;;;;;;;11.95;8.43;;;;;;;15.78;48.69;100612.22;1719601;82;25814;-63
2022/11/22 10:04:24;;;;;;;9.20;8.08;;;;;;;16.52;45.11;100614.62;1720095;82;25812;-63
2022/11/22 10:07:12;;;;;;;10.18;8.53;;;;;;;16.81;43.98;100612.22;1720593;82;27588;-62
2022/11/22 10:09:56;;;;;;;10.53;8.18;;;;;;;17.03;45.37;100606.47;1720084;83;25936;-62
2022/11/22 10:12:40;;;;;;;11.90;8.33;;;;;;;17.48;43.89;100611.48;1719927;83;25747;-62
2022/11/22 10:15:29;;;;;;;9.50;7.75;;;;;;;17.93;43.69;100608.77;1720345;82;25826;-63
2022/11/22 10:18:04;;;;;;;13.08;8.13;;;;;;;18.41;41.91;100611.09;1737733;82;25849;-62
2022/11/22 10:20:36;;;;;;;12.15;8.65;;;;;;;18.63;42.17;100615.19;1740599;81;27538;-62
2022/11/22 10:23:09;;;;;;;16.23;8.30;;;;;;;19.28;39.76;100612.97;1751659;80;25471;-62
2022/11/22 10:25:47;;;;;;;10.32;7.75;;;;;;;19.62;40.48;100616.27;1751756;80;25723;-62
2022/11/22 10:28:40;;;;;;;8.00;7.20;;;;;;;20.17;39.86;100619.10;1746094;80;26603;-62
2022/11/22 10:31:15;;;;;;;10.45;8.03;;;;;;;20.23;38.15;100617.45;1755307;81;25756;-62
2022/11/22 10:34:06;;;;;;;10.48;7.53;;;;;;;19.97;37.51;100614.92;1758613;81;27492;-62
2022/11/22 10:36:38;;;;;;;10.03;7.78;;;;;;;19.44;36.90;100618.66;1758778;81;25703;-62
2022/11/22 10:39:19;;;;;;;16.65;7.90;;;;;;;18.87;37.79;100616.69;1759310;81;25758;-62
2022/11/22 10:42:20;;;;;;;8.75;7.83;;;;;;;18.26;37.84;100614.34;1741084;81;25834;-62
2022/11/22 10:44:55;;;;;;;16.05;8.33;;;;;;;18.37;38.04;100619.30;1758614;81;25764;-62
2022/11/22 10:47:47;;;;;;;16.65;8.50;;;;;;;18.90;39.43;100612.73;1761262;80;27495;-62
2022/11/22 10:50:34;;;;;;;18.15;8.93;;;;;;;18.96;37.77;100611.97;1727477;81;25811;-62
2022/11/22 10:53:18;;;;;;;12.03;8.83;;;;;;;18.36;38.16;100609.97;1734869;81;25740;-61
2022/11/22 10:56:21;;;;;;;12.53;8.78;;;;;;;17.63;38.35;100607.92;1710801;82;25793;-62
2022/11/22 10:59:38;;;;;;;11.60;9.25;;;;;;;16.87;38.93;100610.13;1704247;82;25800;-62
2022/11/22 11:02:47;;;;;;;14.47;9.50;;;;;;;16.21;40.26;100615.99;1734633;81;27503;-61
2022/11/22 11:05:18;;;;;;;12.25;8.95;;;;;;;15.65;40.46;100621.73;1705164;83;25797;-62
2022/11/22 11:07:51;;;;;;;13.08;9.45;;;;;;;15.17;41.36;100625.70;1708822;83;25791;-62
2022/11/22 11:10:22;;;;;;;14.13;9.68;;;;;;;14.98;42.50;100627.39;1693237;82;34440;-62
2022/11/22 11:13:14;;;;;;;14.58;10.48;;;;;;;14.88;41.94;100635.70;1696458;83;25475;-62
2022/11/22 11:15:46;;;;;;;24.25;11.85;;;;;;;14.49;42.57;100647.95;1727445;81;28267;-62
2022/11/22 11:18:39;;;;;;;14.93;10.25;;;;;;;14.11;43.99;100644.77;1743234;81;25776;-62
2022/11/22 11:21:07;;;;;;;40.15;12.70;;;;;;;13.90;44.21;100643.83;1707964;83;25516;-61
2022/11/22 11:23:34;;;;;;;16.20;11.05;;;;;;;13.58;44.17;100648.88;1675712;85;26670;-61
2022/11/22 11:26:25;;;;;;;31.02;12.28;;;;;;;13.30;45.18;100653.56;1730123;81;26631;-61
2022/11/22 11:29:17;;;;;;;18.32;10.32;;;;;;;12.94;45.83;100656.30;1724681;82;27594;-61
2022/11/22 11:31:50;;;;;;;16.37;10.25;;;;;;;12.75;46.11;100656.79;1734437;81;25856;-61
2022/11/22 11:34:27;;;;;;;14.83;9.50;;;;;;;12.23;47.31;100652.51;1710903;83;25477;-61
2022/11/22 11:36:58;;;;;;;11.22;9.38;;;;;;;11.93;47.45;100658.48;1741506;81;26258;-61
2022/11/22 11:39:33;;;;;;;23.75;10.05;;;;;;;11.64;47.90;100660.30;1685877;83;25834;-61
2022/11/22 11:42:04;;;;;;;14.55;10.13;;;;;;;11.47;48.57;100665.92;1740856;80;28397;-61
2022/11/22 11:44:35;;;;;;;17.02;9.58;;;;;;;11.42;48.69;100668.21;1725723;82;25502;-61
2022/11/22 11:47:04;;;;;;;20.80;10.72;;;;;;;11.30;48.78;100676.08;1737854;81;25844;-61
2022/11/22 11:49:33;;;;;;;14.58;9.88;;;;;;;11.17;49.18;100684.45;1715483;82;25833;-61
2022/11/22 11:52:07;;;;;;;14.30;10.05;;;;;;;11.00;49.76;100687.34;1733135;81;25728;-61
2022/11/22 11:54:52;;;;;;;15.83;9.95;;;;;;;10.87;50.11;100688.97;1724265;81;27420;-61
2022/11/22 11:57:30;;;;;;;15.55;9.45;;;;;;;10.76;50.79;100689.95;1734776;81;25715;-61